Latest Weather Observations for Mangrove Mountain

IDN60801

Issued at 9:35 am EST Friday 19 September 2014 (issued every 30 minutes, with the page automatically refreshed every 10 minutes)

About weather observations | Map of weather stations | Latest weather observations for NSW | Other Formats
Station Details ID: 061375 Name: MANGROVE MOUNTAIN AWS Lat: -33.29 Lon: 151.21 Height: 305.0 m
Data from the previous 72 hours. | See also: Recent months at Mangrove Mountain
Date/Time
EST
Temp
°C
App
Temp
°C
Dew
Point
Rel
Hum
%
Delta-T
°C
Wind Press
QNH
hPa
Press
MSL
hPa
Rain
since 9 am
mm
Dir
 
Spd
km/h
Gust
km/h
Spd
kts
Gust
kts
19/09:30am 13.1 11.1 6.2 63 3.3 WNW 6 13 3 7 - - 0.0
19/09:00am 11.3 9.1 5.4 67 2.8 WNW 6 7 3 4 - - 0.0
19/08:30am 10.0 7.7 4.8 70 2.4 NNW 6 7 3 4 - - 0.0
19/08:00am 9.1 7.0 3.7 69 2.4 NNW 4 6 2 3 - - 0.0
19/07:30am 8.9 6.9 4.3 73 2.1 NW 4 7 2 4 - - 0.0
19/07:00am 7.5 5.9 4.6 82 1.3 NW 2 4 1 2 - - 0.0
19/06:30am 5.0 2.9 3.8 92 0.5 NNW 4 6 2 3 - - 0.0
19/06:00am 3.9 1.6 2.9 93 0.4 NNW 4 4 2 2 - - 0.0
19/05:30am 3.6 0.8 2.3 91 0.5 NW 6 6 3 3 - - 0.0
19/05:00am 4.1 1.7 2.3 88 0.7 NW 4 6 2 3 - - 0.0
19/04:30am 4.8 2.1 2.8 87 0.8 NW 6 6 3 3 - - 0.0
19/04:00am 4.4 2.0 2.4 87 0.8 NW 4 4 2 2 - - 0.0
19/03:30am 5.1 2.8 2.8 85 1.0 NNW 4 4 2 2 - - 0.0
19/03:00am 5.0 2.8 3.3 89 0.7 NNW 4 6 2 3 - - 0.0
19/02:30am 4.6 3.1 3.1 90 0.6 CALM 0 0 0 0 - - 0.0
19/02:00am 5.1 3.7 3.3 88 0.8 CALM 0 0 0 0 - - 0.0
19/01:30am 5.3 3.9 3.5 88 0.8 CALM 0 0 0 0 - - 0.0
19/01:00am 5.4 4.0 3.7 89 0.7 CALM 0 0 0 0 - - 0.0
19/12:30am 5.9 3.8 4.1 88 0.8 NW 4 6 2 3 - - 0.0
19/12:00am 6.0 4.3 3.8 86 0.9 W 2 4 1 2 - - 0.0
 
Date/Time
EST
Temp
°C
App
Temp
°C
Dew
Point
Rel
Hum
%
Delta-T
°C
Wind Press
QNH
hPa
Press
MSL
hPa
Rain
since 9 am
mm
Dir
 
Spd
km/h
Gust
km/h
Spd
kts
Gust
kts
18/11:30pm 6.7 5.0 3.9 82 1.2 W 2 4 1 2 - - 0.0
18/11:00pm 8.5 6.6 4.9 78 1.6 WNW 4 7 2 4 - - 0.0
18/10:30pm 8.6 6.8 5.5 81 1.4 NW 4 6 2 3 - - 0.0
18/10:00pm 7.8 6.2 6.4 91 0.7 NW 4 4 2 2 - - 0.0
18/09:30pm 6.8 5.3 4.8 87 0.9 NW 2 4 1 2 - - 0.0
18/09:00pm 6.7 5.6 4.9 88 0.8 CALM 0 0 0 0 - - 0.0
18/08:30pm 6.9 5.8 4.9 87 0.9 CALM 0 0 0 0 - - 0.0
18/08:00pm 7.3 6.1 4.8 84 1.1 CALM 0 0 0 0 - - 0.0
18/07:30pm 7.7 6.5 4.5 80 1.4 CALM 0 0 0 0 - - 0.0
18/07:00pm 8.4 6.4 4.4 76 1.8 SSE 4 4 2 2 - - 0.0
18/06:30pm 9.3 7.2 4.1 70 2.3 SE 4 6 2 3 - - 0.0
18/06:00pm 10.9 8.4 3.9 62 3.2 ESE 6 7 3 4 - - 0.0
18/05:30pm 11.9 8.4 3.7 57 3.7 SE 11 20 6 11 - - 0.0
18/05:00pm 12.9 9.4 3.6 53 4.2 SSE 11 19 6 10 - - 0.0
18/04:30pm 14.3 10.8 3.5 48 5.0 SE 11 22 6 12 - - 0.0
18/04:00pm 14.8 11.1 2.4 43 5.6 SSE 11 19 6 10 - - 0.0
18/03:30pm 15.5 11.7 2.0 40 6.1 SE 11 22 6 12 - - 0.0
18/03:00pm 17.1 13.6 1.1 34 7.2 S 9 17 5 9 - - 0.0
18/02:30pm 17.9 14.5 -0.4 29 8.0 ESE 7 13 4 7 - - 0.0
18/02:00pm 17.5 14.0 -1.2 28 8.0 S 7 15 4 8 - - 0.0
18/01:30pm 17.4 14.0 -0.8 29 7.9 S 7 19 4 10 - - 0.0
18/01:00pm 16.7 13.1 -1.9 28 7.8 SSW 7 17 4 9 - - 0.0
18/12:30pm 16.5 12.7 -0.7 31 7.4 S 9 19 5 10 - - 0.0
18/12:00pm 16.4 12.7 0.1 33 7.1 W 9 17 5 9 - - 0.0
18/11:30am 15.4 11.2 -0.8 33 6.9 WSW 11 22 6 12 - - 0.0
18/11:00am 15.5 11.4 -0.3 34 6.8 SW 11 20 6 11 - - 0.0
18/10:30am 15.0 10.9 0.1 36 6.4 W 11 20 6 11 - - 0.0
18/10:00am 14.2 9.3 -0.6 36 6.2 W 15 30 8 16 - - 0.0
18/09:30am 13.8 9.6 1.5 43 5.4 WSW 13 26 7 14 - - 0.0
18/09:00am 13.3 9.2 2.2 47 4.9 W 13 24 7 13 - - 0.0
18/08:30am 12.9 9.6 2.2 48 4.7 W 9 17 5 9 - - 0.0
18/08:00am 12.1 8.4 2.6 52 4.2 W 11 19 6 10 - - 0.0
18/07:30am 11.2 8.4 3.3 58 3.5 W 7 13 4 7 - - 0.0
18/07:00am 9.5 7.0 3.7 67 2.6 W 6 9 3 5 - - 0.0
18/06:30am 5.8 4.3 3.1 83 1.1 CALM 0 4 0 2 - - 0.0
18/06:00am 4.7 3.1 2.4 85 0.9 CALM 0 0 0 0 - - 0.0
18/05:30am 5.0 3.5 2.9 86 0.9 CALM 0 0 0 0 - - 0.0
18/05:00am 5.0 3.4 2.5 84 1.0 CALM 0 4 0 2 - - 0.0
18/04:30am 5.2 3.6 2.4 82 1.2 CALM 0 2 0 1 - - 0.0
18/04:00am 6.0 3.7 2.6 79 1.4 W 4 7 2 4 - - 0.0
18/03:30am 6.2 3.9 2.5 77 1.5 W 4 6 2 3 - - 0.0
18/03:00am 7.1 5.2 2.8 74 1.8 NW 2 6 1 3 - - 0.0
18/02:30am 6.6 4.3 3.0 78 1.5 W 4 6 2 3 - - 0.0
18/02:00am 7.4 5.5 2.7 72 2.0 WSW 2 4 1 2 - - 0.0
18/01:30am 9.1 6.7 2.4 63 2.9 WSW 4 7 2 4 - - 0.0
18/01:00am 10.0 7.3 2.6 60 3.2 W 6 9 3 5 - - 0.0
18/12:30am 9.7 7.4 2.6 61 3.1 W 4 9 2 5 - - 0.0
18/12:00am 10.4 7.7 2.5 58 3.4 W 6 9 3 5 - - 0.0
 
Date/Time
EST
Temp
°C
App
Temp
°C
Dew
Point
Rel
Hum
%
Delta-T
°C
Wind Press
QNH
hPa
Press
MSL
hPa
Rain
since 9 am
mm
Dir
 
Spd
km/h
Gust
km/h
Spd
kts
Gust
kts
17/11:30pm 11.4 8.5 2.7 55 3.8 W 7 13 4 7 - - 0.0
17/11:00pm 11.8 8.9 2.5 53 4.1 W 7 11 4 6 - - 0.0
17/10:30pm 12.2 8.9 2.6 52 4.3 W 9 13 5 7 - - 0.0
17/10:00pm 12.3 9.0 2.5 51 4.3 W 9 13 5 7 - - 0.0
17/09:30pm 12.5 9.2 2.7 51 4.4 W 9 17 5 9 - - 0.0
17/09:00pm 12.8 9.5 2.4 49 4.6 W 9 13 5 7 - - 0.0
17/08:30pm 13.3 9.6 2.5 48 4.8 W 11 22 6 12 - - 0.0
17/08:00pm 13.3 10.1 2.8 49 4.7 W 9 19 5 10 - - 0.0
17/07:30pm 12.6 10.3 2.5 50 4.5 W 4 9 2 5 - - 0.0
17/07:00pm 13.9 10.9 2.2 45 5.2 W 7 13 4 7 - - 0.0
17/06:30pm 14.4 11.1 2.3 44 5.4 W 9 15 5 8 - - 0.0
17/06:00pm 15.1 11.0 2.0 41 5.9 W 13 20 7 11 - - 0.0
17/05:30pm 15.5 11.8 2.3 41 6.0 W 11 19 6 10 - - 0.0
17/05:00pm 17.1 12.2 1.9 36 6.9 W 17 35 9 19 - - 0.0
17/04:30pm 17.8 13.7 2.2 35 7.2 W 13 33 7 18 - - 0.0
17/04:00pm 18.2 12.0 2.1 34 7.4 W 24 41 13 22 - - 0.0
17/03:30pm 17.5 12.0 1.9 35 7.1 W 20 39 11 21 - - 0.0
17/03:00pm 19.1 14.0 2.9 34 7.7 W 19 32 10 17 - - 0.0
17/02:30pm 18.6 14.1 2.4 34 7.5 W 15 33 8 18 - - 0.0
17/02:00pm 18.9 13.5 2.7 34 7.6 WNW 20 35 11 19 - - 0.0
17/01:30pm 19.6 14.4 3.7 35 7.7 W 20 39 11 21 - - 0.0
17/01:00pm 19.5 16.3 5.2 39 7.1 W 11 22 6 12 - - 0.0
17/12:30pm 19.2 15.6 3.0 34 7.7 W 11 22 6 12 - - 0.0
17/12:00pm 18.8 15.0 3.8 37 7.2 W 13 22 7 12 - - 0.0
17/11:30am 18.0 13.3 3.1 37 7.0 WNW 17 28 9 15 - - 0.0
17/11:00am 17.2 12.4 2.4 37 6.8 W 17 28 9 15 - - 0.0
17/10:30am 17.0 12.2 2.6 38 6.6 WSW 17 28 9 15 - - 0.0
17/10:00am 16.0 12.0 2.8 41 6.1 WSW 13 22 7 12 - - 0.0
17/09:30am 16.1 11.6 4.2 45 5.6 W 17 32 9 17 - - 0.0
17/09:00am 15.2 10.8 4.9 50 4.9 W 17 30 9 16 - - -
17/08:30am 14.9 10.9 4.9 51 4.8 W 15 24 8 13 - - -
17/08:00am 13.6 10.3 4.7 55 4.2 W 11 19 6 10 - - -
17/07:30am 13.2 9.7 5.4 59 3.7 W 13 20 7 11 - - -
17/07:00am 12.7 9.2 5.6 62 3.4 W 13 22 7 12 - - -
17/06:30am 11.7 8.7 6.2 69 2.6 W 11 20 6 11 - - -
17/06:00am 10.6 8.5 6.6 76 1.9 WNW 7 13 4 7 - - -
17/05:30am 10.7 8.6 6.6 76 2.0 WNW 7 11 4 6 - - -
17/05:00am 11.2 9.1 6.7 74 2.2 WNW 7 13 4 7 - - -
17/04:30am 11.1 8.6 6.6 74 2.2 WNW 9 13 5 7 - - -
17/04:00am 11.4 9.3 6.5 72 2.4 WNW 7 15 4 8 - - -
17/03:30am 11.7 9.2 6.4 70 2.5 WNW 9 15 5 8 - - -
17/03:00am 11.9 9.4 6.4 69 2.6 WNW 9 17 5 9 - - 0.0
17/02:30am 12.4 9.5 6.5 67 2.9 WNW 11 20 6 11 - - -
17/02:00am 12.4 9.5 6.5 67 2.9 WNW 11 17 6 9 - - -
17/01:30am 12.4 9.9 6.5 67 2.9 WNW 9 17 5 9 - - -
17/01:00am 12.5 9.9 6.3 66 3.0 WNW 9 17 5 9 - - -
17/12:30am 12.9 10.4 6.5 65 3.1 WNW 9 15 5 8 - - -
17/12:00am 13.1 10.9 6.2 63 3.3 WNW 7 13 4 7 - - -
 
Date/Time
EST
Temp
°C
App
Temp
°C
Dew
Point
Rel
Hum
%
Delta-T
°C
Wind Press
QNH
hPa
Press
MSL
hPa
Rain
since 9 am
mm
Dir
 
Spd
km/h
Gust
km/h
Spd
kts
Gust
kts
16/11:30pm 13.8 10.8 6.2 60 3.7 WNW 11 19 6 10 - - -
16/11:00pm 14.2 12.0 6.3 59 3.9 WNW 7 13 4 7 - - -
16/10:30pm 14.2 12.0 6.1 58 3.9 W 7 15 4 8 - - -
16/10:00pm 14.6 11.2 5.7 55 4.3 W 13 22 7 12 - - -
16/09:30pm 15.0 11.6 5.8 54 4.5 W 13 22 7 12 - - -
16/09:00pm 15.5 11.8 6.2 54 4.6 W 15 28 8 15 - - 0.0
16/08:30pm 15.8 12.9 6.5 54 4.6 W 11 20 6 11 - - -
16/08:00pm 16.6 14.1 6.4 51 5.1 W 9 17 5 9 - - -
16/07:30pm 17.1 14.2 6.3 49 5.4 W 11 22 6 12 - - -
16/07:00pm 17.5 14.9 6.1 47 5.7 W 9 26 5 14 - - -
16/06:30pm 17.7 13.9 5.6 45 6.0 W 15 28 8 15 - - -
16/06:00pm 18.4 14.5 5.3 42 6.5 WNW 15 24 8 13 - - -
16/05:30pm 19.1 15.8 6.2 43 6.5 W 13 24 7 13 - - -
16/05:00pm 19.7 16.0 6.1 41 6.9 WNW 15 24 8 13 - - -
16/04:30pm 20.3 16.2 6.3 40 7.1 W 17 33 9 18 - - -
16/04:00pm 21.0 17.1 5.4 36 7.8 WNW 15 32 8 17 - - -
16/03:30pm 23.0 20.1 6.7 35 8.5 W 11 19 6 10 - - -
16/03:00pm 23.4 19.7 6.2 33 8.9 WNW 15 33 8 18 - - -
16/02:30pm 23.6 20.3 6.4 33 9.0 NW 13 22 7 12 - - 0.0
16/02:00pm 21.9 19.8 8.1 41 7.3 WNW 9 15 5 8 - - 0.0
16/01:30pm 22.2 20.5 9.7 45 6.9 NW 9 15 5 8 - - 0.0
16/01:00pm 22.2 20.0 9.4 44 7.0 NNW 11 22 6 12 - - 0.0
16/12:30pm 22.2 20.8 11.0 49 6.3 N 9 17 5 9 - - 0.0
16/12:00pm 22.0 21.1 12.5 54 5.5 N 9 19 5 10 - - 0.0
16/11:30am 20.3 19.1 12.8 62 4.3 NNW 11 19 6 10 - - 0.0
16/11:00am 19.9 20.7 14.7 72 3.1 W 4 11 2 6 - - 0.0
16/10:30am 18.5 18.6 14.0 75 2.6 NNE 6 11 3 6 - - 0.0
16/10:00am 16.8 15.4 13.3 80 2.0 NNE 13 17 7 9 - - 0.0

Other Formats:

Comma delimited format used in spreadsheet applications
http://www.bom.gov.au/fwo/IDN60801/IDN60801.95774.axf

JavaScript Object Notation format (JSON) in row-major order
http://www.bom.gov.au/fwo/IDN60801/IDN60801.95774.json